PWSweather.com
Personal Weather Stations
Station Observations
N3SME
Betz Creek, Wilmington Island, Savannah, GA 31410

Betz Creek, Wilmington IslandSavannah, GA 31410

Lat: 32.023021, Lon: -80.959452

Elevation: 15

Station Type: Ambient

High Low Average
Temperature 87.5°F30.8°F 71.7°F22.1°F 77.6°F25.3°F
Dew Point 76.2°F24.6°F 69.1°F20.6°F 71.7°F22.1°F
Winds 12.3 mph ENE19.8 mph ENE Calm Calm 4.0 mph 6.4 mph
Wind Gusts 36.7 mph59.1 mph -- 16.7 mph26.9 mph
Humidity 96% 62% 83%
Pressure 30.01 in1016.30 in 29.90 in1012.50 in -
Precipitation 1.80 in45.70 in - -
Hour Temp Dew Point Humidity Winds Wind Gusts Pressure Precip Precip Rate Daily Precip Total
12:01 AM 76.4°F24.7°C 72.8°F22.7°C 89% Calm Calm -- 29.91 in1012.9 mb 0.00 in0.0 mm 0.00 in/hr0.0 mm/hr 0.00 in0.0 mm
12:16 AM 76.0°F24.4°C 72.8°F22.7°C 90% Calm Calm 1.8 mph2.9 kmh 29.91 in1012.9 mb 0.00 in0.0 mm 0.00 in/hr0.0 mm/hr 0.00 in0.0 mm
12:31 AM 75.8°F24.3°C 73.0°F22.8°C 91% Calm Calm 5.1 mph8.2 kmh 29.91 in1012.9 mb 0.00 in0.0 mm 0.00 in/hr0.0 mm/hr 0.00 in0.0 mm
12:46 AM 75.8°F24.3°C 73.0°F22.8°C 91% Calm Calm 1.8 mph2.9 kmh 29.91 in1012.9 mb 0.00 in0.0 mm 0.00 in/hr0.0 mm/hr 0.00 in0.0 mm
01:01 AM 75.8°F24.3°C 72.6°F22.6°C 90% Calm Calm 5.1 mph8.2 kmh 29.91 in1012.9 mb 0.00 in0.0 mm 0.00 in/hr0.0 mm/hr 0.00 in0.0 mm
01:16 AM 75.5°F24.2°C 72.3°F22.4°C 90% Calm Calm 10.5 mph16.9 kmh 29.91 in1012.9 mb 0.00 in0.0 mm 0.00 in/hr0.0 mm/hr 0.00 in0.0 mm
01:31 AM 75.1°F23.9°C 70.9°F21.6°C 87% 3.6 mph ENE5.8 kmh ENE 15.7 mph25.3 kmh 29.91 in1012.9 mb 0.00 in0.0 mm 0.00 in/hr0.0 mm/hr 0.00 in0.0 mm
01:46 AM 75.1°F23.9°C 70.6°F21.4°C 86% 1.8 mph ENE2.9 kmh ENE 14.1 mph22.7 kmh 29.91 in1012.9 mb 0.00 in0.0 mm 0.00 in/hr0.0 mm/hr 0.00 in0.0 mm
02:01 AM 74.7°F23.7°C 70.9°F21.6°C 88% 5.1 mph NE8.2 kmh NE 12.3 mph19.8 kmh 29.92 in1013.2 mb 0.00 in0.0 mm 0.00 in/hr0.0 mm/hr 0.00 in0.0 mm
02:16 AM 75.3°F24.1°C 70.4°F21.3°C 85% 1.8 mph E2.9 kmh E 17.4 mph28.0 kmh 29.93 in1013.5 mb 0.00 in0.0 mm 0.00 in/hr0.0 mm/hr 0.00 in0.0 mm
02:31 AM 75.3°F24.1°C 69.7°F20.9°C 83% 3.6 mph E5.8 kmh E 19.2 mph30.9 kmh 29.91 in1012.9 mb 0.00 in0.0 mm 0.00 in/hr0.0 mm/hr 0.00 in0.0 mm
02:46 AM 74.9°F23.8°C 69.7°F20.9°C 84% Calm Calm 12.3 mph19.8 kmh 29.90 in1012.5 mb 0.00 in0.0 mm 0.00 in/hr0.0 mm/hr 0.00 in0.0 mm
03:01 AM 74.6°F23.7°C 69.7°F20.9°C 85% Calm Calm 3.6 mph5.8 kmh 29.90 in1012.5 mb 0.00 in0.0 mm 0.00 in/hr0.0 mm/hr 0.00 in0.0 mm
03:16 AM 73.8°F23.2°C 69.3°F20.7°C 86% Calm Calm 1.8 mph2.9 kmh 29.91 in1012.9 mb 0.00 in0.0 mm 0.00 in/hr0.0 mm/hr 0.00 in0.0 mm
03:31 AM 73.3°F22.9°C 69.1°F20.6°C 87% Calm Calm -- 29.90 in1012.5 mb 0.00 in0.0 mm 0.00 in/hr0.0 mm/hr 0.00 in0.0 mm
03:46 AM 72.9°F22.7°C 69.1°F20.6°C 88% Calm Calm 3.6 mph5.8 kmh 29.91 in1012.9 mb 0.00 in0.0 mm 0.00 in/hr0.0 mm/hr 0.00 in0.0 mm
04:01 AM 72.6°F22.6°C 69.1°F20.6°C 89% Calm Calm -- 29.91 in1012.9 mb 0.00 in0.0 mm 0.00 in/hr0.0 mm/hr 0.00 in0.0 mm
04:16 AM 72.8°F22.7°C 69.6°F20.9°C 90% Calm Calm 1.8 mph2.9 kmh 29.90 in1012.5 mb 0.00 in0.0 mm 0.00 in/hr0.0 mm/hr 0.00 in0.0 mm
04:31 AM 72.6°F22.6°C 69.4°F20.8°C 90% Calm Calm 1.8 mph2.9 kmh 29.91 in1012.9 mb 0.00 in0.0 mm 0.00 in/hr0.0 mm/hr 0.00 in0.0 mm
04:46 AM 72.2°F22.3°C 69.4°F20.8°C 91% Calm Calm 3.6 mph5.8 kmh 29.91 in1012.9 mb 0.00 in0.0 mm 0.00 in/hr0.0 mm/hr 0.00 in0.0 mm
05:01 AM 72.0°F22.2°C 69.2°F20.7°C 91% Calm Calm 1.8 mph2.9 kmh 29.91 in1012.9 mb 0.00 in0.0 mm 0.00 in/hr0.0 mm/hr 0.00 in0.0 mm
05:16 AM 72.0°F22.2°C 69.6°F20.9°C 92% Calm Calm 3.6 mph5.8 kmh 29.91 in1012.9 mb 0.00 in0.0 mm 0.00 in/hr0.0 mm/hr 0.00 in0.0 mm
05:31 AM 72.0°F22.2°C 69.9°F21.1°C 93% Calm Calm 1.8 mph2.9 kmh 29.91 in1012.9 mb 0.00 in0.0 mm 0.00 in/hr0.0 mm/hr 0.00 in0.0 mm
05:46 AM 72.0°F22.2°C 69.9°F21.1°C 93% Calm Calm 1.8 mph2.9 kmh 29.92 in1013.2 mb 0.00 in0.0 mm 0.00 in/hr0.0 mm/hr 0.00 in0.0 mm
06:01 AM 71.9°F22.2°C 69.7°F20.9°C 93% Calm Calm 1.8 mph2.9 kmh 29.92 in1013.2 mb 0.00 in0.0 mm 0.00 in/hr0.0 mm/hr 0.00 in0.0 mm
06:16 AM 71.7°F22.1°C 69.8°F21.0°C 94% Calm Calm -- 29.92 in1013.2 mb 0.00 in0.0 mm 0.00 in/hr0.0 mm/hr 0.00 in0.0 mm
06:31 AM 71.9°F22.2°C 70.0°F21.1°C 94% Calm Calm 3.6 mph5.8 kmh 29.93 in1013.5 mb 0.00 in0.0 mm 0.00 in/hr0.0 mm/hr 0.00 in0.0 mm
06:46 AM 72.2°F22.3°C 71.0°F21.7°C 96% Calm Calm 3.6 mph5.8 kmh 29.93 in1013.5 mb 0.00 in0.0 mm 0.00 in/hr0.0 mm/hr 0.00 in0.0 mm
07:01 AM 72.6°F22.6°C 71.1°F21.7°C 95% Calm Calm 3.6 mph5.8 kmh 29.93 in1013.5 mb 0.00 in0.0 mm 0.00 in/hr0.0 mm/hr 0.00 in0.0 mm
07:16 AM 72.9°F22.7°C 71.7°F22.1°C 96% Calm Calm 1.8 mph2.9 kmh 29.95 in1014.2 mb 0.00 in0.0 mm 0.00 in/hr0.0 mm/hr 0.00 in0.0 mm
07:31 AM 72.9°F22.7°C 71.7°F22.1°C 96% Calm Calm 1.8 mph2.9 kmh 29.95 in1014.2 mb 0.00 in0.0 mm 0.00 in/hr0.0 mm/hr 0.00 in0.0 mm
07:46 AM 73.3°F22.9°C 72.1°F22.3°C 96% Calm Calm 1.8 mph2.9 kmh 29.96 in1014.6 mb 0.00 in0.0 mm 0.00 in/hr0.0 mm/hr 0.00 in0.0 mm
08:01 AM 73.8°F23.2°C 72.3°F22.4°C 95% Calm Calm 3.6 mph5.8 kmh 29.96 in1014.6 mb 0.00 in0.0 mm 0.00 in/hr0.0 mm/hr 0.00 in0.0 mm
08:16 AM 74.4°F23.6°C 73.2°F22.9°C 96% Calm Calm 3.6 mph5.8 kmh 29.96 in1014.6 mb 0.00 in0.0 mm 0.00 in/hr0.0 mm/hr 0.00 in0.0 mm
08:31 AM 75.3°F24.1°C 74.1°F23.4°C 96% 1.8 mph ENE2.9 kmh ENE 15.7 mph25.3 kmh 29.96 in1014.6 mb 0.00 in0.0 mm 0.00 in/hr0.0 mm/hr 0.00 in0.0 mm
08:46 AM 76.5°F24.7°C 74.7°F23.7°C 94% 5.1 mph E8.2 kmh E 14.1 mph22.7 kmh 29.96 in1014.6 mb 0.00 in0.0 mm 0.00 in/hr0.0 mm/hr 0.00 in0.0 mm
09:01 AM 78.3°F25.7°C 75.1°F23.9°C 90% 1.8 mph E2.9 kmh E 17.4 mph28.0 kmh 29.97 in1014.9 mb 0.00 in0.0 mm 0.00 in/hr0.0 mm/hr 0.00 in0.0 mm
09:16 AM 81.2°F27.3°C 76.2°F24.6°C 85% 3.6 mph ENE5.8 kmh ENE 12.3 mph19.8 kmh 29.96 in1014.6 mb 0.00 in0.0 mm 0.00 in/hr0.0 mm/hr 0.00 in0.0 mm
09:31 AM 81.0°F27.2°C 75.3°F24.1°C 83% 5.1 mph ENE8.2 kmh ENE 22.8 mph36.7 kmh 29.97 in1014.9 mb 0.00 in0.0 mm 0.00 in/hr0.0 mm/hr 0.00 in0.0 mm
09:46 AM 81.9°F27.7°C 73.8°F23.2°C 77% 3.6 mph E5.8 kmh E 22.8 mph36.7 kmh 29.97 in1014.9 mb 0.00 in0.0 mm 0.00 in/hr0.0 mm/hr 0.00 in0.0 mm
10:01 AM 81.4°F27.4°C 72.9°F22.7°C 76% 3.6 mph E5.8 kmh E 15.7 mph25.3 kmh 29.97 in1014.9 mb 0.00 in0.0 mm 0.00 in/hr0.0 mm/hr 0.00 in0.0 mm
10:16 AM 82.7°F28.2°C 74.5°F23.6°C 77% 1.8 mph ESE2.9 kmh ESE 14.1 mph22.7 kmh 29.97 in1014.9 mb 0.00 in0.0 mm 0.00 in/hr0.0 mm/hr 0.00 in0.0 mm
10:31 AM 83.0°F28.3°C 74.5°F23.6°C 76% 1.8 mph ENE2.9 kmh ENE 10.5 mph16.9 kmh 29.98 in1015.2 mb 0.00 in0.0 mm 0.00 in/hr0.0 mm/hr 0.00 in0.0 mm
10:46 AM 82.7°F28.2°C 73.3°F22.9°C 74% 1.8 mph NE2.9 kmh NE 8.7 mph14.0 kmh 29.98 in1015.2 mb 0.00 in0.0 mm 0.00 in/hr0.0 mm/hr 0.00 in0.0 mm
11:01 AM 85.0°F29.4°C 72.4°F22.4°C 67% 3.6 mph E5.8 kmh E 22.8 mph36.7 kmh 29.98 in1015.2 mb 0.00 in0.0 mm 0.00 in/hr0.0 mm/hr 0.00 in0.0 mm
11:16 AM 84.8°F29.3°C 73.6°F23.1°C 70% 6.9 mph ESE11.1 kmh ESE 24.6 mph39.6 kmh 29.98 in1015.2 mb 0.00 in0.0 mm 0.00 in/hr0.0 mm/hr 0.00 in0.0 mm
11:31 AM 86.1°F30.1°C 72.0°F22.2°C 64% 8.7 mph E14.0 kmh E 24.6 mph39.6 kmh 29.98 in1015.2 mb 0.00 in0.0 mm 0.00 in/hr0.0 mm/hr 0.00 in0.0 mm
11:46 AM 86.8°F30.4°C 72.7°F22.6°C 64% 6.9 mph E11.1 kmh E 28.0 mph45.1 kmh 29.98 in1015.2 mb 0.00 in0.0 mm 0.00 in/hr0.0 mm/hr 0.00 in0.0 mm
12:01 PM 86.4°F30.2°C 72.8°F22.7°C 65% 6.9 mph E11.1 kmh E 26.2 mph42.2 kmh 29.99 in1015.6 mb 0.00 in0.0 mm 0.00 in/hr0.0 mm/hr 0.00 in0.0 mm
12:16 PM 86.4°F30.2°C 71.9°F22.2°C 63% 12.3 mph E19.8 kmh E 29.8 mph48.0 kmh 29.99 in1015.6 mb 0.00 in0.0 mm 0.00 in/hr0.0 mm/hr 0.00 in0.0 mm
12:31 PM 87.5°F30.8°C 72.4°F22.4°C 62% 8.7 mph E14.0 kmh E 24.6 mph39.6 kmh 29.98 in1015.2 mb 0.00 in0.0 mm 0.00 in/hr0.0 mm/hr 0.00 in0.0 mm
12:46 PM 85.5°F29.7°C 71.5°F21.9°C 64% 8.7 mph E14.0 kmh E 26.2 mph42.2 kmh 29.99 in1015.6 mb 0.00 in0.0 mm 0.00 in/hr0.0 mm/hr 0.00 in0.0 mm
01:01 PM 83.4°F28.6°C 71.4°F21.9°C 68% 6.9 mph E11.1 kmh E 19.2 mph30.9 kmh 29.99 in1015.6 mb 0.00 in0.0 mm 0.00 in/hr0.0 mm/hr 0.00 in0.0 mm
01:16 PM 82.7°F28.2°C 72.9°F22.7°C 73% 6.9 mph E11.1 kmh E 22.8 mph36.7 kmh 29.98 in1015.2 mb 0.00 in0.0 mm 0.00 in/hr0.0 mm/hr 0.00 in0.0 mm
01:31 PM 81.2°F27.3°C 72.3°F22.4°C 75% 10.5 mph E16.9 kmh E 33.3 mph53.6 kmh 29.98 in1015.2 mb 0.00 in0.0 mm 0.00 in/hr0.0 mm/hr 0.00 in0.0 mm
01:46 PM 81.0°F27.2°C 71.3°F21.8°C 73% 5.1 mph E8.2 kmh E 26.2 mph42.2 kmh 29.97 in1014.9 mb 0.00 in0.0 mm 0.00 in/hr0.0 mm/hr 0.00 in0.0 mm
02:01 PM 81.6°F27.6°C 73.1°F22.8°C 76% 8.7 mph E14.0 kmh E 28.0 mph45.1 kmh 29.96 in1014.6 mb 0.00 in0.0 mm 0.00 in/hr0.0 mm/hr 0.00 in0.0 mm
02:16 PM 82.3°F27.9°C 72.5°F22.5°C 73% 10.5 mph E16.9 kmh E 36.7 mph59.1 kmh 29.97 in1014.9 mb 0.00 in0.0 mm 0.00 in/hr0.0 mm/hr 0.00 in0.0 mm
02:31 PM 82.3°F27.9°C 72.1°F22.3°C 72% 6.9 mph ESE11.1 kmh ESE 24.6 mph39.6 kmh 29.97 in1014.9 mb 0.00 in0.0 mm 0.00 in/hr0.0 mm/hr 0.00 in0.0 mm
02:46 PM 82.7°F28.2°C 73.3°F22.9°C 74% 3.6 mph E5.8 kmh E 28.0 mph45.1 kmh 29.96 in1014.6 mb 0.00 in0.0 mm 0.00 in/hr0.0 mm/hr 0.00 in0.0 mm
03:01 PM 82.8°F28.2°C 73.1°F22.8°C 73% 5.1 mph ENE8.2 kmh ENE 14.1 mph22.7 kmh 29.96 in1014.6 mb 0.00 in0.0 mm 0.00 in/hr0.0 mm/hr 0.00 in0.0 mm
03:16 PM 82.3°F27.9°C 72.1°F22.3°C 72% 6.9 mph E11.1 kmh E 24.6 mph39.6 kmh 29.96 in1014.6 mb 0.00 in0.0 mm 0.00 in/hr0.0 mm/hr 0.00 in0.0 mm
03:31 PM 82.3°F27.9°C 71.7°F22.1°C 71% 8.7 mph ENE14.0 kmh ENE 22.8 mph36.7 kmh 29.96 in1014.6 mb 0.00 in0.0 mm 0.00 in/hr0.0 mm/hr 0.00 in0.0 mm
03:46 PM 81.9°F27.7°C 71.3°F21.8°C 71% 5.1 mph E8.2 kmh E 22.8 mph36.7 kmh 29.96 in1014.6 mb 0.00 in0.0 mm 0.00 in/hr0.0 mm/hr 0.00 in0.0 mm
04:01 PM 82.5°F28.1°C 71.0°F21.7°C 69% 8.7 mph E14.0 kmh E 19.2 mph30.9 kmh 29.96 in1014.6 mb 0.00 in0.0 mm 0.00 in/hr0.0 mm/hr 0.00 in0.0 mm
04:16 PM 82.3°F27.9°C 71.2°F21.8°C 70% 5.1 mph E8.2 kmh E 19.2 mph30.9 kmh 29.96 in1014.6 mb 0.00 in0.0 mm 0.00 in/hr0.0 mm/hr 0.00 in0.0 mm
04:31 PM 82.7°F28.2°C 72.0°F22.2°C 71% 12.3 mph ENE19.8 kmh ENE 26.2 mph42.2 kmh 29.95 in1014.2 mb 0.00 in0.0 mm 0.00 in/hr0.0 mm/hr 0.00 in0.0 mm
04:46 PM 83.0°F28.3°C 72.4°F22.4°C 71% 8.7 mph SE14.0 kmh SE 24.6 mph39.6 kmh 29.95 in1014.2 mb 0.00 in0.0 mm 0.00 in/hr0.0 mm/hr 0.00 in0.0 mm
05:01 PM 81.6°F27.6°C 71.8°F22.1°C 73% 8.7 mph ESE14.0 kmh ESE 26.2 mph42.2 kmh 29.95 in1014.2 mb 0.00 in0.0 mm 0.00 in/hr0.0 mm/hr 0.00 in0.0 mm
05:16 PM 81.9°F27.7°C 71.8°F22.1°C 72% 6.9 mph E11.1 kmh E 21.0 mph33.8 kmh 29.95 in1014.2 mb 0.00 in0.0 mm 0.00 in/hr0.0 mm/hr 0.00 in0.0 mm
05:31 PM 80.9°F27.2°C 71.2°F21.8°C 73% 12.3 mph E19.8 kmh E 35.1 mph56.5 kmh 29.96 in1014.6 mb 0.00 in0.0 mm 0.00 in/hr0.0 mm/hr 0.00 in0.0 mm
05:46 PM 79.6°F26.4°C 70.4°F21.3°C 74% 8.7 mph E14.0 kmh E 29.8 mph48.0 kmh 29.96 in1014.6 mb 0.00 in0.0 mm 0.00 in/hr0.0 mm/hr 0.00 in0.0 mm
06:01 PM 79.2°F26.2°C 72.0°F22.2°C 79% 5.1 mph E8.2 kmh E 24.6 mph39.6 kmh 29.96 in1014.6 mb 0.00 in0.0 mm 0.00 in/hr0.0 mm/hr 0.00 in0.0 mm
06:16 PM 78.9°F26.1°C 72.4°F22.4°C 81% 3.6 mph E5.8 kmh E 26.2 mph42.2 kmh 29.96 in1014.6 mb 0.00 in0.0 mm 0.00 in/hr0.0 mm/hr 0.00 in0.0 mm
06:31 PM 77.8°F25.4°C 72.5°F22.5°C 84% 8.7 mph E14.0 kmh E 22.8 mph36.7 kmh 29.97 in1014.9 mb 0.00 in0.0 mm 0.00 in/hr0.0 mm/hr 0.00 in0.0 mm
06:46 PM 78.2°F25.7°C 71.4°F21.9°C 80% 3.6 mph E5.8 kmh E 28.0 mph45.1 kmh 29.96 in1014.6 mb 0.00 in0.0 mm 0.00 in/hr0.0 mm/hr 0.00 in0.0 mm
07:01 PM 78.7°F25.9°C 71.1°F21.7°C 78% 5.1 mph E8.2 kmh E 35.1 mph56.5 kmh 29.96 in1014.6 mb 0.00 in0.0 mm 0.00 in/hr0.0 mm/hr 0.00 in0.0 mm
07:16 PM 78.9°F26.1°C 70.5°F21.4°C 76% 3.6 mph ENE5.8 kmh ENE 26.2 mph42.2 kmh 29.97 in1014.9 mb 0.00 in0.0 mm 0.00 in/hr0.0 mm/hr 0.00 in0.0 mm
07:31 PM 78.5°F25.8°C 70.9°F21.6°C 78% 5.1 mph ESE8.2 kmh ESE 17.4 mph28.0 kmh 29.97 in1014.9 mb 0.00 in0.0 mm 0.00 in/hr0.0 mm/hr 0.00 in0.0 mm
07:46 PM 77.4°F25.2°C 71.8°F22.1°C 83% Calm Calm 33.3 mph53.6 kmh 29.98 in1015.2 mb 0.09 in2.3 mm 0.36 in/hr9.1 mm/hr 0.09 in2.3 mm
08:01 PM 76.5°F24.7°C 72.3°F22.4°C 87% 3.6 mph E5.8 kmh E 15.7 mph25.3 kmh 29.98 in1015.2 mb 0.09 in2.3 mm 0.00 in/hr0.0 mm/hr 0.09 in2.3 mm
08:16 PM 75.8°F24.3°C 71.6°F22.0°C 87% 5.1 mph E8.2 kmh E 28.0 mph45.1 kmh 29.98 in1015.2 mb 0.11 in2.8 mm 0.08 in/hr2.0 mm/hr 0.11 in2.8 mm
08:31 PM 74.9°F23.8°C 71.8°F22.1°C 90% 6.9 mph E11.1 kmh E 31.5 mph50.7 kmh 29.98 in1015.2 mb 0.12 in3.0 mm 0.04 in/hr1.0 mm/hr 0.12 in3.0 mm
08:46 PM 74.6°F23.7°C 71.7°F22.1°C 91% 6.9 mph E11.1 kmh E 28.0 mph45.1 kmh 29.98 in1015.2 mb 0.04 in1.0 mm 0.00 in/hr0.0 mm/hr 0.13 in3.3 mm
09:01 PM 75.1°F23.9°C 71.9°F22.2°C 90% 6.9 mph E11.1 kmh E 22.8 mph36.7 kmh 29.98 in1015.2 mb 0.04 in1.0 mm 0.00 in/hr0.0 mm/hr 0.13 in3.3 mm
09:16 PM 75.3°F24.1°C 71.8°F22.1°C 89% 10.5 mph ENE16.9 kmh ENE 22.8 mph36.7 kmh 29.99 in1015.6 mb 0.02 in0.5 mm 0.00 in/hr0.0 mm/hr 0.13 in3.3 mm
09:31 PM 75.3°F24.1°C 72.1°F22.3°C 90% 3.6 mph NE5.8 kmh NE 24.6 mph39.6 kmh 30.00 in1015.9 mb 0.01 in0.3 mm 0.00 in/hr0.0 mm/hr 0.13 in3.3 mm
09:46 PM 73.5°F23.1°C 71.6°F22.0°C 94% 6.9 mph ENE11.1 kmh ENE 26.2 mph42.2 kmh 30.01 in1016.3 mb 0.31 in7.9 mm 1.20 in/hr30.5 mm/hr 0.44 in11.2 mm
10:01 PM 73.7°F23.2°C 72.1°F22.3°C 95% 5.1 mph E8.2 kmh E 26.2 mph42.2 kmh 30.00 in1015.9 mb 0.32 in8.1 mm 0.01 in/hr0.3 mm/hr 0.45 in11.4 mm
10:16 PM 73.1°F22.8°C 71.0°F21.7°C 93% 6.9 mph ENE11.1 kmh ENE 26.2 mph42.2 kmh 30.01 in1016.3 mb 0.32 in8.1 mm 0.00 in/hr0.0 mm/hr 0.45 in11.4 mm
10:31 PM 72.2°F22.3°C 70.1°F21.2°C 93% 6.9 mph E11.1 kmh E 17.4 mph28.0 kmh 30.01 in1016.3 mb 0.32 in8.1 mm 0.00 in/hr0.0 mm/hr 0.45 in11.4 mm
10:46 PM 72.4°F22.4°C 70.9°F21.6°C 95% 1.8 mph E2.9 kmh E 22.8 mph36.7 kmh 30.01 in1016.3 mb 0.01 in0.3 mm 0.00 in/hr0.0 mm/hr 0.45 in11.4 mm
11:01 PM 72.8°F22.7°C 70.9°F21.6°C 94% 3.6 mph E5.8 kmh E 15.7 mph25.3 kmh 30.00 in1015.9 mb 0.00 in0.0 mm 0.00 in/hr0.0 mm/hr 0.45 in11.4 mm
11:16 PM 72.9°F22.7°C 71.1°F21.7°C 94% Calm Calm 12.3 mph19.8 kmh 30.00 in1015.9 mb 0.00 in0.0 mm 0.00 in/hr0.0 mm/hr 0.45 in11.4 mm
11:31 PM 72.9°F22.7°C 71.4°F21.9°C 95% 5.1 mph ENE8.2 kmh ENE 19.2 mph30.9 kmh 29.99 in1015.6 mb 0.00 in0.0 mm 0.00 in/hr0.0 mm/hr 0.45 in11.4 mm
11:46 PM 72.8°F22.7°C 71.2°F21.8°C 95% 8.7 mph E14.0 kmh E 21.0 mph33.8 kmh 29.99 in1015.6 mb 0.00 in0.0 mm 0.00 in/hr0.0 mm/hr 0.45 in11.4 mm